Caldwell, Texas
Current Conditions -  °F | °C
As of 5:50 AM on Saturday 25 Oct 2014 (Local Time) from KRWV Reporting Station
Clear Clear  
Wind Chill: 14°   Ceiling: Unl
Heat Index: 14°   Visibility: 10mi
Dew Point: 13°   Wind: 0mph
Humidity: 94%   Direction: NA
Pressure: 30.17"   Gusts: NA
Location:  30.53°N, 96.69°W
Report Text: KRWV 251050Z AUTO 00000KT 10SM CLR 14/13 A3017 RMK AO2
Loading
Personal Weather Stations






























Interactive Weather Map
Tropical Storm Tracking
New forecast layout! Learn more

10-Day Weather Forecast

Advertisements
Track Severe Weather on mobile